sensor_id;sensor_type;location;lat;lon;timestamp;P1;durP1;ratioP1;P2;durP2;ratioP2
48647;SDS011;34437;-33.956;151.076;2023-02-27T00:01:05;3.03;;;1.63;;
48647;SDS011;34437;-33.956;151.076;2023-02-27T00:03:28;3.42;;;1.75;;
48647;SDS011;34437;-33.956;151.076;2023-02-27T00:05:50;4.05;;;1.67;;
48647;SDS011;34437;-33.956;151.076;2023-02-27T00:08:13;2.92;;;1.58;;
48647;SDS011;34437;-33.956;151.076;2023-02-27T00:10:35;2.22;;;1.33;;
48647;SDS011;34437;-33.956;151.076;2023-02-27T00:12:58;2.55;;;1.40;;
48647;SDS011;34437;-33.956;151.076;2023-02-27T00:15:20;2.95;;;1.75;;
48647;SDS011;34437;-33.956;151.076;2023-02-27T00:17:43;2.92;;;1.38;;
48647;SDS011;34437;-33.956;151.076;2023-02-27T00:20:06;2.85;;;1.60;;
48647;SDS011;34437;-33.956;151.076;2023-02-27T00:22:33;4.35;;;1.55;;
48647;SDS011;34437;-33.956;151.076;2023-02-27T00:24:55;2.15;;;1.40;;
48647;SDS011;34437;-33.956;151.076;2023-02-27T00:27:18;2.17;;;1.25;;
48647;SDS011;34437;-33.956;151.076;2023-02-27T00:29:40;3.58;;;1.30;;
48647;SDS011;34437;-33.956;151.076;2023-02-27T00:32:02;2.38;;;1.40;;
48647;SDS011;34437;-33.956;151.076;2023-02-27T00:34:28;3.35;;;1.25;;
48647;SDS011;34437;-33.956;151.076;2023-02-27T00:36:50;2.03;;;1.17;;
48647;SDS011;34437;-33.956;151.076;2023-02-27T00:39:13;2.47;;;1.20;;
48647;SDS011;34437;-33.956;151.076;2023-02-27T00:41:35;2.47;;;1.40;;
48647;SDS011;34437;-33.956;151.076;2023-02-27T00:43:58;2.80;;;1.35;;
48647;SDS011;34437;-33.956;151.076;2023-02-27T00:46:20;2.40;;;1.35;;
48647;SDS011;34437;-33.956;151.076;2023-02-27T00:48:42;5.40;;;1.52;;
48647;SDS011;34437;-33.956;151.076;2023-02-27T00:51:05;2.22;;;1.10;;
48647;SDS011;34437;-33.956;151.076;2023-02-27T00:53:27;1.85;;;1.17;;
48647;SDS011;34437;-33.956;151.076;2023-02-27T00:55:50;1.45;;;1.20;;
48647;SDS011;34437;-33.956;151.076;2023-02-27T00:58:12;3.20;;;1.40;;
48647;SDS011;34437;-33.956;151.076;2023-02-27T01:00:35;1.60;;;0.90;;
48647;SDS011;34437;-33.956;151.076;2023-02-27T01:02:57;2.55;;;1.30;;
48647;SDS011;34437;-33.956;151.076;2023-02-27T01:05:20;2.83;;;1.13;;
48647;SDS011;34437;-33.956;151.076;2023-02-27T01:07:43;1.83;;;1.07;;
48647;SDS011;34437;-33.956;151.076;2023-02-27T01:10:06;1.67;;;0.93;;
48647;SDS011;34437;-33.956;151.076;2023-02-27T01:12:29;2.07;;;1.10;;
48647;SDS011;34437;-33.956;151.076;2023-02-27T01:14:52;2.42;;;1.55;;
48647;SDS011;34437;-33.956;151.076;2023-02-27T01:17:14;3.65;;;1.42;;
48647;SDS011;34437;-33.956;151.076;2023-02-27T01:19:37;3.25;;;1.40;;
48647;SDS011;34437;-33.956;151.076;2023-02-27T01:21:59;2.78;;;1.30;;
48647;SDS011;34437;-33.956;151.076;2023-02-27T01:24:22;2.08;;;1.40;;
48647;SDS011;34437;-33.956;151.076;2023-02-27T01:26:44;2.17;;;1.40;;
48647;SDS011;34437;-33.956;151.076;2023-02-27T01:29:07;2.17;;;1.40;;
48647;SDS011;34437;-33.956;151.076;2023-02-27T01:31:30;1.95;;;1.30;;
48647;SDS011;34437;-33.956;151.076;2023-02-27T01:33:52;2.35;;;1.30;;
48647;SDS011;34437;-33.956;151.076;2023-02-27T01:36:15;1.90;;;1.15;;
48647;SDS011;34437;-33.956;151.076;2023-02-27T01:38:37;3.00;;;1.08;;
48647;SDS011;34437;-33.956;151.076;2023-02-27T01:40:59;2.72;;;1.35;;
48647;SDS011;34437;-33.956;151.076;2023-02-27T01:43:24;2.95;;;1.30;;
48647;SDS011;34437;-33.956;151.076;2023-02-27T01:45:46;2.58;;;1.30;;
48647;SDS011;34437;-33.956;151.076;2023-02-27T01:48:11;2.45;;;1.27;;
48647;SDS011;34437;-33.956;151.076;2023-02-27T01:50:51;3.90;;;1.50;;
48647;SDS011;34437;-33.956;151.076;2023-02-27T01:53:25;4.15;;;1.30;;
48647;SDS011;34437;-33.956;151.076;2023-02-27T01:55:49;1.50;;;1.02;;
48647;SDS011;34437;-33.956;151.076;2023-02-27T01:58:18;1.88;;;1.15;;
48647;SDS011;34437;-33.956;151.076;2023-02-27T02:00:41;2.50;;;1.08;;
48647;SDS011;34437;-33.956;151.076;2023-02-27T02:05:29;2.50;;;0.80;;
48647;SDS011;34437;-33.956;151.076;2023-02-27T02:07:52;2.80;;;1.38;;
48647;SDS011;34437;-33.956;151.076;2023-02-27T02:10:15;3.50;;;1.10;;
48647;SDS011;34437;-33.956;151.076;2023-02-27T02:12:40;1.90;;;0.93;;
48647;SDS011;34437;-33.956;151.076;2023-02-27T02:15:03;1.83;;;1.08;;
48647;SDS011;34437;-33.956;151.076;2023-02-27T02:18:10;5.10;;;1.52;;
48647;SDS011;34437;-33.956;151.076;2023-02-27T02:28:55;6.65;;;1.95;;
48647;SDS011;34437;-33.956;151.076;2023-02-27T02:36:42;3.95;;;2.60;;
48647;SDS011;34437;-33.956;151.076;2023-02-27T02:39:33;6.88;;;2.70;;
48647;SDS011;34437;-33.956;151.076;2023-02-27T02:42:21;5.60;;;3.17;;
48647;SDS011;34437;-33.956;151.076;2023-02-27T02:48:01;7.50;;;3.30;;
48647;SDS011;34437;-33.956;151.076;2023-02-27T02:50:38;4.28;;;2.72;;
48647;SDS011;34437;-33.956;151.076;2023-02-27T03:04:12;5.40;;;2.83;;
48647;SDS011;34437;-33.956;151.076;2023-02-27T03:06:46;3.78;;;2.42;;
48647;SDS011;34437;-33.956;151.076;2023-02-27T03:09:17;13.52;;;2.83;;
48647;SDS011;34437;-33.956;151.076;2023-02-27T03:11:52;5.15;;;2.47;;
48647;SDS011;34437;-33.956;151.076;2023-02-27T03:17:40;3.30;;;2.30;;
48647;SDS011;34437;-33.956;151.076;2023-02-27T03:20:07;5.20;;;2.25;;
48647;SDS011;34437;-33.956;151.076;2023-02-27T03:22:37;8.23;;;2.75;;
48647;SDS011;34437;-33.956;151.076;2023-02-27T03:25:02;3.25;;;2.28;;
48647;SDS011;34437;-33.956;151.076;2023-02-27T03:27:29;4.45;;;2.40;;
48647;SDS011;34437;-33.956;151.076;2023-02-27T03:30:01;4.97;;;2.13;;
48647;SDS011;34437;-33.956;151.076;2023-02-27T03:33:05;5.65;;;2.10;;
48647;SDS011;34437;-33.956;151.076;2023-02-27T03:35:44;4.90;;;1.80;;
48647;SDS011;34437;-33.956;151.076;2023-02-27T03:41:13;3.55;;;2.38;;
48647;SDS011;34437;-33.956;151.076;2023-02-27T03:46:24;3.58;;;1.60;;
48647;SDS011;34437;-33.956;151.076;2023-02-27T03:48:48;4.63;;;2.00;;
48647;SDS011;34437;-33.956;151.076;2023-02-27T03:51:11;3.97;;;1.80;;
48647;SDS011;34437;-33.956;151.076;2023-02-27T03:56:21;3.45;;;1.48;;
48647;SDS011;34437;-33.956;151.076;2023-02-27T03:58:51;8.90;;;1.50;;
48647;SDS011;34437;-33.956;151.076;2023-02-27T04:01:14;5.32;;;1.30;;
48647;SDS011;34437;-33.956;151.076;2023-02-27T04:03:40;2.33;;;1.53;;
48647;SDS011;34437;-33.956;151.076;2023-02-27T04:06:26;3.47;;;1.60;;
48647;SDS011;34437;-33.956;151.076;2023-02-27T04:09:10;15.05;;;2.00;;
48647;SDS011;34437;-33.956;151.076;2023-02-27T04:11:50;3.85;;;1.88;;
48647;SDS011;34437;-33.956;151.076;2023-02-27T04:19:51;2.47;;;1.70;;
48647;SDS011;34437;-33.956;151.076;2023-02-27T04:22:27;2.38;;;1.55;;
48647;SDS011;34437;-33.956;151.076;2023-02-27T04:27:50;3.40;;;1.77;;
48647;SDS011;34437;-33.956;151.076;2023-02-27T04:32:48;3.47;;;1.70;;
48647;SDS011;34437;-33.956;151.076;2023-02-27T04:35:22;3.95;;;1.98;;
48647;SDS011;34437;-33.956;151.076;2023-02-27T04:37:59;3.33;;;1.80;;
48647;SDS011;34437;-33.956;151.076;2023-02-27T04:40:26;3.05;;;1.95;;
48647;SDS011;34437;-33.956;151.076;2023-02-27T04:42:56;2.60;;;1.65;;
48647;SDS011;34437;-33.956;151.076;2023-02-27T04:45:22;2.30;;;1.60;;
48647;SDS011;34437;-33.956;151.076;2023-02-27T04:47:58;1.92;;;1.23;;
48647;SDS011;34437;-33.956;151.076;2023-02-27T04:50:38;1.92;;;1.33;;
48647;SDS011;34437;-33.956;151.076;2023-02-27T04:53:10;3.22;;;1.60;;
48647;SDS011;34437;-33.956;151.076;2023-02-27T04:55:37;5.15;;;1.73;;
48647;SDS011;34437;-33.956;151.076;2023-02-27T04:58:13;3.60;;;1.60;;
48647;SDS011;34437;-33.956;151.076;2023-02-27T05:00:43;2.67;;;1.50;;
48647;SDS011;34437;-33.956;151.076;2023-02-27T05:03:13;3.85;;;1.30;;
48647;SDS011;34437;-33.956;151.076;2023-02-27T05:05:43;2.60;;;1.38;;
48647;SDS011;34437;-33.956;151.076;2023-02-27T05:08:52;4.00;;;1.50;;
48647;SDS011;34437;-33.956;151.076;2023-02-27T05:10:59;2.63;;;1.45;;
48647;SDS011;34437;-33.956;151.076;2023-02-27T05:13:54;2.65;;;1.40;;
48647;SDS011;34437;-33.956;151.076;2023-02-27T05:18:48;2.45;;;1.40;;
48647;SDS011;34437;-33.956;151.076;2023-02-27T05:21:15;2.33;;;1.27;;
48647;SDS011;34437;-33.956;151.076;2023-02-27T05:23:49;3.28;;;1.48;;
48647;SDS011;34437;-33.956;151.076;2023-02-27T05:34:41;3.50;;;1.70;;
48647;SDS011;34437;-33.956;151.076;2023-02-27T05:37:13;2.70;;;1.48;;
48647;SDS011;34437;-33.956;151.076;2023-02-27T05:39:40;3.22;;;1.50;;
48647;SDS011;34437;-33.956;151.076;2023-02-27T05:42:18;2.05;;;1.30;;
48647;SDS011;34437;-33.956;151.076;2023-02-27T05:44:56;2.08;;;1.48;;
48647;SDS011;34437;-33.956;151.076;2023-02-27T05:47:40;1.75;;;1.15;;
48647;SDS011;34437;-33.956;151.076;2023-02-27T05:50:25;2.03;;;1.33;;
48647;SDS011;34437;-33.956;151.076;2023-02-27T05:52:50;2.53;;;1.40;;
48647;SDS011;34437;-33.956;151.076;2023-02-27T05:57:53;3.40;;;1.40;;
48647;SDS011;34437;-33.956;151.076;2023-02-27T06:00:24;2.38;;;1.27;;
48647;SDS011;34437;-33.956;151.076;2023-02-27T06:03:13;6.90;;;1.70;;
48647;SDS011;34437;-33.956;151.076;2023-02-27T06:05:36;2.00;;;1.20;;
48647;SDS011;34437;-33.956;151.076;2023-02-27T06:08:01;2.20;;;1.23;;
48647;SDS011;34437;-33.956;151.076;2023-02-27T06:10:24;4.07;;;1.38;;
48647;SDS011;34437;-33.956;151.076;2023-02-27T06:12:46;1.50;;;0.93;;
48647;SDS011;34437;-33.956;151.076;2023-02-27T06:15:09;1.90;;;1.35;;
48647;SDS011;34437;-33.956;151.076;2023-02-27T06:17:32;3.40;;;1.23;;
48647;SDS011;34437;-33.956;151.076;2023-02-27T06:19:55;3.67;;;1.55;;
48647;SDS011;34437;-33.956;151.076;2023-02-27T06:22:17;2.90;;;1.40;;
48647;SDS011;34437;-33.956;151.076;2023-02-27T06:24:39;12.18;;;2.20;;
48647;SDS011;34437;-33.956;151.076;2023-02-27T06:27:02;3.33;;;1.50;;
48647;SDS011;34437;-33.956;151.076;2023-02-27T06:29:24;10.38;;;1.80;;
48647;SDS011;34437;-33.956;151.076;2023-02-27T06:31:46;14.25;;;1.73;;
48647;SDS011;34437;-33.956;151.076;2023-02-27T06:34:09;5.93;;;1.48;;
48647;SDS011;34437;-33.956;151.076;2023-02-27T06:36:31;6.38;;;2.17;;
48647;SDS011;34437;-33.956;151.076;2023-02-27T06:38:54;3.78;;;1.70;;
48647;SDS011;34437;-33.956;151.076;2023-02-27T06:41:17;5.95;;;1.67;;
48647;SDS011;34437;-33.956;151.076;2023-02-27T06:43:40;9.85;;;1.90;;
48647;SDS011;34437;-33.956;151.076;2023-02-27T06:46:02;13.25;;;2.85;;
48647;SDS011;34437;-33.956;151.076;2023-02-27T06:48:25;10.20;;;2.17;;
48647;SDS011;34437;-33.956;151.076;2023-02-27T06:50:53;26.08;;;3.97;;
48647;SDS011;34437;-33.956;151.076;2023-02-27T06:53:16;8.85;;;2.20;;
48647;SDS011;34437;-33.956;151.076;2023-02-27T06:55:39;8.90;;;2.25;;
48647;SDS011;34437;-33.956;151.076;2023-02-27T06:58:01;11.35;;;2.60;;
48647;SDS011;34437;-33.956;151.076;2023-02-27T07:00:24;7.13;;;2.20;;
48647;SDS011;34437;-33.956;151.076;2023-02-27T07:02:46;12.77;;;2.10;;
48647;SDS011;34437;-33.956;151.076;2023-02-27T07:05:09;8.38;;;1.90;;
48647;SDS011;34437;-33.956;151.076;2023-02-27T07:07:32;23.42;;;2.22;;
48647;SDS011;34437;-33.956;151.076;2023-02-27T07:09:54;5.90;;;2.13;;
48647;SDS011;34437;-33.956;151.076;2023-02-27T07:12:17;9.38;;;2.00;;
48647;SDS011;34437;-33.956;151.076;2023-02-27T07:14:39;11.77;;;2.00;;
48647;SDS011;34437;-33.956;151.076;2023-02-27T07:17:02;10.80;;;1.85;;
48647;SDS011;34437;-33.956;151.076;2023-02-27T07:19:25;5.55;;;1.58;;
48647;SDS011;34437;-33.956;151.076;2023-02-27T07:21:47;6.57;;;1.67;;
48647;SDS011;34437;-33.956;151.076;2023-02-27T07:24:10;8.52;;;2.00;;
48647;SDS011;34437;-33.956;151.076;2023-02-27T07:26:32;4.15;;;1.40;;
48647;SDS011;34437;-33.956;151.076;2023-02-27T07:28:55;6.13;;;1.90;;
48647;SDS011;34437;-33.956;151.076;2023-02-27T07:31:17;5.00;;;1.77;;
48647;SDS011;34437;-33.956;151.076;2023-02-27T07:33:40;5.78;;;2.10;;
48647;SDS011;34437;-33.956;151.076;2023-02-27T07:36:03;10.52;;;2.13;;
48647;SDS011;34437;-33.956;151.076;2023-02-27T07:38:26;6.30;;;1.80;;
48647;SDS011;34437;-33.956;151.076;2023-02-27T07:40:48;5.07;;;1.83;;
48647;SDS011;34437;-33.956;151.076;2023-02-27T07:43:12;7.65;;;1.75;;
48647;SDS011;34437;-33.956;151.076;2023-02-27T07:45:35;4.97;;;1.45;;
48647;SDS011;34437;-33.956;151.076;2023-02-27T07:47:57;9.05;;;1.67;;
48647;SDS011;34437;-33.956;151.076;2023-02-27T07:50:20;6.25;;;1.85;;
48647;SDS011;34437;-33.956;151.076;2023-02-27T07:52:42;6.95;;;1.60;;
48647;SDS011;34437;-33.956;151.076;2023-02-27T07:55:05;7.93;;;1.63;;
48647;SDS011;34437;-33.956;151.076;2023-02-27T07:57:29;5.13;;;1.83;;
48647;SDS011;34437;-33.956;151.076;2023-02-27T07:59:51;5.20;;;1.55;;
48647;SDS011;34437;-33.956;151.076;2023-02-27T08:02:14;4.40;;;1.67;;
48647;SDS011;34437;-33.956;151.076;2023-02-27T08:04:36;5.50;;;1.58;;
48647;SDS011;34437;-33.956;151.076;2023-02-27T08:06:59;5.05;;;1.33;;
48647;SDS011;34437;-33.956;151.076;2023-02-27T08:11:44;11.57;;;1.35;;
48647;SDS011;34437;-33.956;151.076;2023-02-27T08:14:07;4.07;;;1.90;;
48647;SDS011;34437;-33.956;151.076;2023-02-27T08:16:29;3.55;;;1.40;;
48647;SDS011;34437;-33.956;151.076;2023-02-27T08:18:52;3.80;;;1.50;;
48647;SDS011;34437;-33.956;151.076;2023-02-27T08:21:14;4.22;;;1.75;;
48647;SDS011;34437;-33.956;151.076;2023-02-27T08:23:37;4.97;;;1.77;;
48647;SDS011;34437;-33.956;151.076;2023-02-27T08:25:59;5.32;;;1.85;;
48647;SDS011;34437;-33.956;151.076;2023-02-27T08:28:23;3.42;;;1.50;;
48647;SDS011;34437;-33.956;151.076;2023-02-27T08:30:47;5.63;;;1.70;;
48647;SDS011;34437;-33.956;151.076;2023-02-27T08:33:09;4.97;;;1.80;;
48647;SDS011;34437;-33.956;151.076;2023-02-27T08:35:31;4.15;;;1.77;;
48647;SDS011;34437;-33.956;151.076;2023-02-27T08:37:54;4.28;;;1.83;;
48647;SDS011;34437;-33.956;151.076;2023-02-27T08:40:16;2.58;;;1.45;;
48647;SDS011;34437;-33.956;151.076;2023-02-27T08:42:39;8.40;;;2.17;;
48647;SDS011;34437;-33.956;151.076;2023-02-27T08:45:01;5.30;;;1.98;;
48647;SDS011;34437;-33.956;151.076;2023-02-27T08:47:24;6.90;;;1.77;;
48647;SDS011;34437;-33.956;151.076;2023-02-27T08:49:47;2.30;;;1.30;;
48647;SDS011;34437;-33.956;151.076;2023-02-27T08:52:10;52.72;;;4.35;;
48647;SDS011;34437;-33.956;151.076;2023-02-27T08:54:32;12.75;;;2.75;;
48647;SDS011;34437;-33.956;151.076;2023-02-27T08:56:55;11.60;;;2.20;;
48647;SDS011;34437;-33.956;151.076;2023-02-27T08:59:17;7.75;;;2.17;;
48647;SDS011;34437;-33.956;151.076;2023-02-27T09:01:40;7.82;;;2.38;;
48647;SDS011;34437;-33.956;151.076;2023-02-27T09:04:03;8.02;;;2.03;;
48647;SDS011;34437;-33.956;151.076;2023-02-27T09:06:26;8.15;;;2.10;;
48647;SDS011;34437;-33.956;151.076;2023-02-27T09:08:49;10.30;;;2.00;;
48647;SDS011;34437;-33.956;151.076;2023-02-27T09:11:11;4.70;;;1.70;;
48647;SDS011;34437;-33.956;151.076;2023-02-27T09:13:33;5.80;;;1.58;;
48647;SDS011;34437;-33.956;151.076;2023-02-27T09:15:56;4.00;;;1.95;;
48647;SDS011;34437;-33.956;151.076;2023-02-27T09:18:19;2.30;;;1.45;;
48647;SDS011;34437;-33.956;151.076;2023-02-27T09:20:42;2.85;;;1.83;;
48647;SDS011;34437;-33.956;151.076;2023-02-27T09:23:04;4.57;;;1.70;;
48647;SDS011;34437;-33.956;151.076;2023-02-27T09:25:27;3.92;;;1.88;;
48647;SDS011;34437;-33.956;151.076;2023-02-27T09:27:49;28.52;;;3.33;;
48647;SDS011;34437;-33.956;151.076;2023-02-27T09:30:12;15.02;;;2.17;;
48647;SDS011;34437;-33.956;151.076;2023-02-27T09:32:34;10.93;;;2.08;;
48647;SDS011;34437;-33.956;151.076;2023-02-27T09:34:57;8.20;;;2.20;;
48647;SDS011;34437;-33.956;151.076;2023-02-27T09:37:20;21.23;;;2.50;;
48647;SDS011;34437;-33.956;151.076;2023-02-27T09:39:45;5.00;;;1.58;;
48647;SDS011;34437;-33.956;151.076;2023-02-27T09:42:16;4.97;;;2.03;;
48647;SDS011;34437;-33.956;151.076;2023-02-27T09:47:13;8.88;;;2.30;;
48647;SDS011;34437;-33.956;151.076;2023-02-27T09:52:18;7.25;;;1.85;;
48647;SDS011;34437;-33.956;151.076;2023-02-27T09:54:40;4.00;;;1.73;;
48647;SDS011;34437;-33.956;151.076;2023-02-27T09:57:03;2.72;;;1.45;;
48647;SDS011;34437;-33.956;151.076;2023-02-27T09:59:43;3.33;;;1.55;;
48647;SDS011;34437;-33.956;151.076;2023-02-27T10:07:29;3.90;;;1.60;;
48647;SDS011;34437;-33.956;151.076;2023-02-27T10:10:17;6.57;;;1.80;;
48647;SDS011;34437;-33.956;151.076;2023-02-27T10:15:27;3.92;;;1.70;;
48647;SDS011;34437;-33.956;151.076;2023-02-27T10:18:12;11.02;;;1.70;;
48647;SDS011;34437;-33.956;151.076;2023-02-27T10:20:50;4.90;;;1.83;;
48647;SDS011;34437;-33.956;151.076;2023-02-27T10:23:17;3.78;;;1.58;;
48647;SDS011;34437;-33.956;151.076;2023-02-27T10:25:44;4.82;;;1.50;;
48647;SDS011;34437;-33.956;151.076;2023-02-27T10:28:10;3.05;;;1.83;;
48647;SDS011;34437;-33.956;151.076;2023-02-27T10:30:34;3.42;;;1.40;;
48647;SDS011;34437;-33.956;151.076;2023-02-27T10:35:37;4.38;;;1.65;;
48647;SDS011;34437;-33.956;151.076;2023-02-27T10:38:03;3.80;;;1.80;;
48647;SDS011;34437;-33.956;151.076;2023-02-27T10:40:32;4.47;;;1.75;;
48647;SDS011;34437;-33.956;151.076;2023-02-27T10:42:59;3.17;;;1.80;;
48647;SDS011;34437;-33.956;151.076;2023-02-27T10:45:22;3.60;;;2.15;;
48647;SDS011;34437;-33.956;151.076;2023-02-27T10:47:45;6.05;;;1.92;;
48647;SDS011;34437;-33.956;151.076;2023-02-27T10:52:49;3.20;;;1.88;;
48647;SDS011;34437;-33.956;151.076;2023-02-27T10:55:17;3.35;;;1.80;;
48647;SDS011;34437;-33.956;151.076;2023-02-27T10:57:44;4.43;;;2.15;;
48647;SDS011;34437;-33.956;151.076;2023-02-27T11:02:48;2.00;;;1.60;;
48647;SDS011;34437;-33.956;151.076;2023-02-27T11:05:17;2.65;;;1.83;;
48647;SDS011;34437;-33.956;151.076;2023-02-27T11:07:46;4.90;;;2.10;;
48647;SDS011;34437;-33.956;151.076;2023-02-27T11:10:16;3.08;;;1.90;;
48647;SDS011;34437;-33.956;151.076;2023-02-27T11:13:04;2.35;;;1.65;;
48647;SDS011;34437;-33.956;151.076;2023-02-27T11:15:29;2.17;;;1.50;;
48647;SDS011;34437;-33.956;151.076;2023-02-27T11:17:53;3.10;;;1.50;;
48647;SDS011;34437;-33.956;151.076;2023-02-27T11:20:35;3.38;;;1.95;;
48647;SDS011;34437;-33.956;151.076;2023-02-27T11:23:13;4.07;;;1.77;;
48647;SDS011;34437;-33.956;151.076;2023-02-27T11:25:41;3.80;;;1.60;;
48647;SDS011;34437;-33.956;151.076;2023-02-27T11:28:22;2.25;;;1.83;;
48647;SDS011;34437;-33.956;151.076;2023-02-27T11:30:56;2.45;;;1.98;;
48647;SDS011;34437;-33.956;151.076;2023-02-27T11:33:21;3.70;;;1.90;;
48647;SDS011;34437;-33.956;151.076;2023-02-27T11:35:49;2.75;;;1.67;;
48647;SDS011;34437;-33.956;151.076;2023-02-27T11:38:17;4.72;;;1.83;;
48647;SDS011;34437;-33.956;151.076;2023-02-27T11:40:53;3.08;;;1.58;;
48647;SDS011;34437;-33.956;151.076;2023-02-27T11:43:28;2.80;;;1.67;;
48647;SDS011;34437;-33.956;151.076;2023-02-27T11:45:56;2.70;;;1.70;;
48647;SDS011;34437;-33.956;151.076;2023-02-27T11:48:27;3.05;;;1.70;;
48647;SDS011;34437;-33.956;151.076;2023-02-27T11:53:48;3.25;;;1.80;;
48647;SDS011;34437;-33.956;151.076;2023-02-27T11:56:22;4.90;;;1.90;;
48647;SDS011;34437;-33.956;151.076;2023-02-27T12:01:35;3.33;;;1.80;;
48647;SDS011;34437;-33.956;151.076;2023-02-27T12:04:19;2.83;;;1.80;;
48647;SDS011;34437;-33.956;151.076;2023-02-27T12:09:43;2.67;;;1.67;;
48647;SDS011;34437;-33.956;151.076;2023-02-27T12:17:56;4.80;;;1.70;;
48647;SDS011;34437;-33.956;151.076;2023-02-27T12:31:03;3.78;;;1.83;;
48647;SDS011;34437;-33.956;151.076;2023-02-27T12:33:43;3.03;;;1.60;;
48647;SDS011;34437;-33.956;151.076;2023-02-27T12:36:09;2.40;;;1.30;;
48647;SDS011;34437;-33.956;151.076;2023-02-27T12:38:35;4.03;;;1.77;;
48647;SDS011;34437;-33.956;151.076;2023-02-27T12:41:00;2.78;;;1.50;;
48647;SDS011;34437;-33.956;151.076;2023-02-27T12:51:44;3.38;;;1.85;;
48647;SDS011;34437;-33.956;151.076;2023-02-27T13:05:00;6.82;;;1.55;;
48647;SDS011;34437;-33.956;151.076;2023-02-27T13:07:32;2.85;;;1.92;;
48647;SDS011;34437;-33.956;151.076;2023-02-27T13:10:13;1.83;;;1.25;;
48647;SDS011;34437;-33.956;151.076;2023-02-27T13:12:54;1.88;;;1.45;;
48647;SDS011;34437;-33.956;151.076;2023-02-27T13:16:12;3.38;;;1.58;;
48647;SDS011;34437;-33.956;151.076;2023-02-27T13:18:30;2.80;;;1.40;;
48647;SDS011;34437;-33.956;151.076;2023-02-27T13:21:16;1.92;;;1.38;;
48647;SDS011;34437;-33.956;151.076;2023-02-27T13:26:21;5.90;;;1.70;;
48647;SDS011;34437;-33.956;151.076;2023-02-27T13:28:51;5.70;;;1.50;;
48647;SDS011;34437;-33.956;151.076;2023-02-27T13:34:03;2.60;;;1.60;;
48647;SDS011;34437;-33.956;151.076;2023-02-27T13:36:36;3.65;;;1.45;;
48647;SDS011;34437;-33.956;151.076;2023-02-27T13:42:54;3.35;;;1.50;;
48647;SDS011;34437;-33.956;151.076;2023-02-27T13:44:51;2.87;;;1.53;;
48647;SDS011;34437;-33.956;151.076;2023-02-27T13:49:51;5.05;;;1.40;;
48647;SDS011;34437;-33.956;151.076;2023-02-27T13:52:14;2.73;;;1.50;;
48647;SDS011;34437;-33.956;151.076;2023-02-27T13:54:53;2.17;;;1.35;;
48647;SDS011;34437;-33.956;151.076;2023-02-27T13:57:20;2.25;;;1.30;;
48647;SDS011;34437;-33.956;151.076;2023-02-27T13:59:50;2.33;;;1.30;;
48647;SDS011;34437;-33.956;151.076;2023-02-27T14:04:59;5.40;;;1.70;;
48647;SDS011;34437;-33.956;151.076;2023-02-27T14:07:27;12.88;;;1.88;;
48647;SDS011;34437;-33.956;151.076;2023-02-27T14:10:00;8.10;;;2.25;;
48647;SDS011;34437;-33.956;151.076;2023-02-27T14:14:52;6.55;;;1.50;;
48647;SDS011;34437;-33.956;151.076;2023-02-27T14:23:17;4.35;;;1.63;;
48647;SDS011;34437;-33.956;151.076;2023-02-27T14:28:14;2.35;;;1.42;;
48647;SDS011;34437;-33.956;151.076;2023-02-27T14:30:38;1.98;;;1.17;;
48647;SDS011;34437;-33.956;151.076;2023-02-27T14:33:20;3.58;;;1.50;;
48647;SDS011;34437;-33.956;151.076;2023-02-27T14:35:49;2.90;;;1.70;;
48647;SDS011;34437;-33.956;151.076;2023-02-27T14:38:24;5.63;;;1.85;;
48647;SDS011;34437;-33.956;151.076;2023-02-27T14:43:38;2.53;;;1.70;;
48647;SDS011;34437;-33.956;151.076;2023-02-27T14:46:06;2.42;;;1.45;;
48647;SDS011;34437;-33.956;151.076;2023-02-27T14:48:34;2.20;;;1.17;;
48647;SDS011;34437;-33.956;151.076;2023-02-27T14:53:23;2.97;;;1.40;;
48647;SDS011;34437;-33.956;151.076;2023-02-27T14:55:56;2.42;;;1.20;;
48647;SDS011;34437;-33.956;151.076;2023-02-27T14:58:21;1.38;;;1.17;;
48647;SDS011;34437;-33.956;151.076;2023-02-27T15:00:47;4.57;;;1.75;;
48647;SDS011;34437;-33.956;151.076;2023-02-27T15:05:41;2.40;;;1.55;;
48647;SDS011;34437;-33.956;151.076;2023-02-27T15:08:04;3.40;;;1.60;;
48647;SDS011;34437;-33.956;151.076;2023-02-27T15:10:28;1.67;;;1.25;;
48647;SDS011;34437;-33.956;151.076;2023-02-27T15:12:51;2.30;;;1.38;;
48647;SDS011;34437;-33.956;151.076;2023-02-27T15:15:15;1.90;;;1.30;;
48647;SDS011;34437;-33.956;151.076;2023-02-27T15:17:41;2.80;;;1.40;;
48647;SDS011;34437;-33.956;151.076;2023-02-27T15:22:50;3.65;;;1.48;;
48647;SDS011;34437;-33.956;151.076;2023-02-27T15:25:26;2.50;;;1.40;;
48647;SDS011;34437;-33.956;151.076;2023-02-27T15:27:59;3.08;;;1.55;;
48647;SDS011;34437;-33.956;151.076;2023-02-27T15:30:23;3.78;;;2.20;;
48647;SDS011;34437;-33.956;151.076;2023-02-27T15:32:46;2.20;;;1.30;;
48647;SDS011;34437;-33.956;151.076;2023-02-27T15:35:16;2.53;;;1.40;;
48647;SDS011;34437;-33.956;151.076;2023-02-27T15:37:44;3.25;;;1.40;;
48647;SDS011;34437;-33.956;151.076;2023-02-27T15:40:11;3.13;;;1.30;;
48647;SDS011;34437;-33.956;151.076;2023-02-27T15:42:41;2.47;;;1.30;;
48647;SDS011;34437;-33.956;151.076;2023-02-27T15:45:04;3.50;;;1.40;;
48647;SDS011;34437;-33.956;151.076;2023-02-27T15:49:59;2.47;;;1.15;;
48647;SDS011;34437;-33.956;151.076;2023-02-27T15:52:50;2.97;;;1.30;;
48647;SDS011;34437;-33.956;151.076;2023-02-27T15:55:16;4.25;;;1.48;;
48647;SDS011;34437;-33.956;151.076;2023-02-27T15:57:44;4.10;;;1.23;;
48647;SDS011;34437;-33.956;151.076;2023-02-27T16:00:07;2.20;;;1.50;;
48647;SDS011;34437;-33.956;151.076;2023-02-27T16:02:34;5.22;;;2.10;;
48647;SDS011;34437;-33.956;151.076;2023-02-27T16:05:03;2.42;;;1.52;;
48647;SDS011;34437;-33.956;151.076;2023-02-27T16:07:26;3.40;;;1.73;;
48647;SDS011;34437;-33.956;151.076;2023-02-27T16:09:55;2.72;;;1.50;;
48647;SDS011;34437;-33.956;151.076;2023-02-27T16:14:45;3.92;;;1.60;;
48647;SDS011;34437;-33.956;151.076;2023-02-27T16:19:55;1.65;;;1.13;;
48647;SDS011;34437;-33.956;151.076;2023-02-27T16:22:20;3.10;;;1.35;;
48647;SDS011;34437;-33.956;151.076;2023-02-27T16:24:43;3.25;;;1.50;;
48647;SDS011;34437;-33.956;151.076;2023-02-27T16:27:13;2.50;;;1.48;;
48647;SDS011;34437;-33.956;151.076;2023-02-27T16:29:40;2.65;;;1.58;;
48647;SDS011;34437;-33.956;151.076;2023-02-27T16:32:13;3.70;;;1.65;;
48647;SDS011;34437;-33.956;151.076;2023-02-27T16:34:46;2.05;;;1.55;;
48647;SDS011;34437;-33.956;151.076;2023-02-27T16:37:15;3.15;;;1.52;;
48647;SDS011;34437;-33.956;151.076;2023-02-27T16:39:43;3.28;;;1.48;;
48647;SDS011;34437;-33.956;151.076;2023-02-27T16:42:07;2.90;;;1.65;;
48647;SDS011;34437;-33.956;151.076;2023-02-27T16:44:30;4.20;;;1.90;;
48647;SDS011;34437;-33.956;151.076;2023-02-27T16:46:53;2.20;;;1.40;;
48647;SDS011;34437;-33.956;151.076;2023-02-27T16:49:23;4.15;;;1.58;;
48647;SDS011;34437;-33.956;151.076;2023-02-27T16:51:47;1.80;;;1.23;;
48647;SDS011;34437;-33.956;151.076;2023-02-27T16:54:10;2.13;;;1.50;;
48647;SDS011;34437;-33.956;151.076;2023-02-27T16:56:33;4.68;;;1.67;;
48647;SDS011;34437;-33.956;151.076;2023-02-27T16:58:57;2.65;;;1.33;;
48647;SDS011;34437;-33.956;151.076;2023-02-27T17:01:22;3.65;;;1.48;;
48647;SDS011;34437;-33.956;151.076;2023-02-27T17:03:45;5.68;;;1.65;;
48647;SDS011;34437;-33.956;151.076;2023-02-27T17:06:07;3.00;;;1.52;;